createdAt,value
2023-04-13T00:01:28.708Z,20.60
2023-04-13T00:03:58.133Z,20.60
2023-04-13T00:06:28.750Z,20.60
2023-04-13T00:08:58.797Z,20.60
2023-04-13T00:11:29.502Z,20.50
2023-04-13T00:13:58.895Z,20.50
2023-04-13T00:16:29.715Z,20.50
2023-04-13T00:18:58.124Z,20.60
2023-04-13T00:21:27.877Z,20.50
2023-04-13T00:23:56.363Z,20.50
2023-04-13T00:26:25.119Z,20.60
2023-04-13T00:28:54.753Z,20.60
2023-04-13T00:31:23.415Z,20.50
2023-04-13T00:33:51.706Z,20.60
2023-04-13T00:36:19.950Z,20.50
2023-04-13T00:38:49.203Z,20.60
2023-04-13T00:41:17.518Z,20.60
2023-04-13T00:43:45.962Z,20.60
2023-04-13T00:46:16.531Z,20.50
2023-04-13T00:48:45.541Z,20.50
2023-04-13T00:51:14.224Z,20.50
2023-04-13T00:53:42.956Z,20.50
2023-04-13T00:56:12.124Z,20.50
2023-04-13T00:58:40.568Z,20.50
2023-04-13T01:01:08.970Z,20.50
2023-04-13T01:03:39.992Z,20.50
2023-04-13T01:06:18.193Z,20.50
2023-04-13T01:08:53.682Z,20.50
2023-04-13T01:11:30.086Z,20.50
2023-04-13T01:14:04.090Z,20.50
2023-04-13T01:16:43.601Z,20.50
2023-04-13T01:19:23.825Z,20.50
2023-04-13T01:21:54.554Z,20.50
2023-04-13T01:24:39.146Z,20.50
2023-04-13T01:27:14.113Z,20.50
2023-04-13T01:29:46.723Z,20.50
2023-04-13T01:32:16.932Z,20.50
2023-04-13T01:34:46.410Z,20.50
2023-04-13T01:37:16.761Z,20.50
2023-04-13T01:39:47.339Z,20.40
2023-04-13T01:42:25.667Z,20.50
2023-04-13T01:44:55.676Z,20.50
2023-04-13T01:47:26.845Z,20.40
2023-04-13T01:50:15.934Z,20.50
2023-04-13T01:52:53.420Z,20.40
2023-04-13T01:55:24.325Z,20.40
2023-04-13T01:57:59.359Z,20.40
2023-04-13T02:00:35.864Z,20.40
2023-04-13T02:03:09.832Z,20.40
2023-04-13T02:05:40.165Z,20.40
2023-04-13T02:08:09.560Z,20.40
2023-04-13T02:10:43.166Z,20.40
2023-04-13T02:13:11.917Z,20.40
2023-04-13T02:15:42.894Z,20.40
2023-04-13T02:18:11.797Z,20.40
2023-04-13T02:20:45.099Z,20.40
2023-04-13T02:23:15.295Z,20.40
2023-04-13T02:25:47.869Z,20.40
2023-04-13T02:28:17.876Z,20.40
2023-04-13T02:30:49.092Z,20.40
2023-04-13T02:33:19.228Z,20.40
2023-04-13T02:35:48.912Z,20.40
2023-04-13T02:38:18.377Z,20.30
2023-04-13T02:40:55.656Z,20.30
2023-04-13T02:43:23.903Z,20.40
2023-04-13T02:45:54.400Z,20.30
2023-04-13T02:48:25.691Z,20.30
2023-04-13T02:50:55.593Z,20.30
2023-04-13T02:53:49.357Z,20.30
2023-04-13T02:56:17.654Z,20.30
2023-04-13T02:58:49.264Z,20.30
2023-04-13T03:01:24.931Z,20.30
2023-04-13T03:03:54.581Z,20.30
2023-04-13T03:06:26.009Z,20.30
2023-04-13T03:08:59.238Z,20.30
2023-04-13T03:11:29.092Z,20.30
2023-04-13T03:14:07.958Z,20.30
2023-04-13T03:16:38.929Z,20.30
2023-04-13T03:19:08.090Z,20.30
2023-04-13T03:21:37.272Z,20.30
2023-04-13T03:24:13.497Z,20.30
2023-04-13T03:26:41.862Z,20.30
2023-04-13T03:29:15.522Z,20.30
2023-04-13T03:31:47.938Z,20.30
2023-04-13T03:34:16.691Z,20.30
2023-04-13T03:36:47.548Z,20.30
2023-04-13T03:39:18.578Z,20.30
2023-04-13T03:41:46.834Z,20.30
2023-04-13T03:44:16.516Z,20.30
2023-04-13T03:46:45.482Z,20.30
2023-04-13T03:49:30.356Z,20.20
2023-04-13T03:51:59.941Z,20.20
2023-04-13T03:54:32.565Z,20.30
2023-04-13T03:57:02.326Z,20.30
2023-04-13T03:59:33.089Z,20.20
2023-04-13T04:02:02.775Z,20.30
2023-04-13T04:04:33.465Z,20.30
2023-04-13T04:07:01.716Z,20.20
2023-04-13T04:09:29.963Z,20.20
2023-04-13T04:11:58.255Z,20.30
2023-04-13T04:14:38.147Z,20.20
2023-04-13T04:17:16.709Z,20.20
2023-04-13T04:19:47.159Z,20.30
2023-04-13T04:22:17.601Z,20.20
2023-04-13T04:24:45.889Z,20.30
2023-04-13T04:27:14.459Z,20.30
2023-04-13T04:29:49.130Z,20.20
2023-04-13T04:32:26.513Z,20.30
2023-04-13T04:34:57.670Z,20.30
2023-04-13T04:37:27.378Z,20.30
2023-04-13T04:40:07.734Z,20.20
2023-04-13T04:42:37.237Z,20.30
2023-04-13T04:45:09.108Z,20.20
2023-04-13T04:47:43.470Z,20.30
2023-04-13T04:50:33.577Z,20.30
2023-04-13T04:53:11.570Z,20.30
2023-04-13T04:55:40.617Z,20.20
2023-04-13T04:58:13.451Z,20.30
2023-04-13T05:00:48.034Z,20.30
2023-04-13T05:03:17.982Z,20.30
2023-04-13T05:05:52.859Z,20.30
2023-04-13T05:08:29.620Z,20.30
2023-04-13T05:10:59.243Z,20.30
2023-04-13T05:13:27.669Z,20.30
2023-04-13T05:16:12.139Z,20.30
2023-04-13T05:18:48.068Z,20.30
2023-04-13T05:21:29.373Z,20.30
2023-04-13T05:24:00.870Z,20.30
2023-04-13T05:26:30.988Z,20.30
2023-04-13T05:29:00.918Z,20.30
2023-04-13T05:31:34.063Z,20.30
2023-04-13T05:34:02.888Z,20.30
2023-04-13T05:36:32.950Z,20.30
2023-04-13T05:39:05.926Z,20.30
2023-04-13T05:41:35.165Z,20.30
2023-04-13T05:44:04.117Z,20.30
2023-04-13T05:46:34.534Z,20.30
2023-04-13T05:49:06.414Z,20.30
2023-04-13T05:51:36.085Z,20.30
2023-04-13T05:54:04.338Z,20.30
2023-04-13T05:56:34.338Z,20.30
2023-04-13T05:59:03.600Z,20.30
2023-04-13T06:01:32.242Z,20.30
2023-04-13T06:04:03.712Z,20.30
2023-04-13T06:06:33.618Z,20.30
2023-04-13T06:09:05.366Z,20.30
2023-04-13T06:11:33.661Z,20.30
2023-04-13T06:14:02.686Z,20.30
2023-04-13T06:16:31.013Z,20.30
2023-04-13T06:19:01.267Z,20.30
2023-04-13T06:21:30.195Z,20.30
2023-04-13T06:23:58.444Z,20.30
2023-04-13T06:26:36.154Z,20.30
2023-04-13T06:29:04.595Z,20.30
2023-04-13T06:31:42.056Z,20.30
2023-04-13T06:34:15.028Z,20.30
2023-04-13T06:36:44.362Z,20.30
2023-04-13T06:39:16.035Z,20.30
2023-04-13T06:41:53.656Z,20.40
2023-04-13T06:44:42.785Z,20.40
2023-04-13T06:47:11.502Z,20.40
2023-04-13T06:49:40.110Z,20.40
2023-04-13T06:52:08.498Z,20.40
2023-04-13T06:54:36.807Z,20.50
2023-04-13T06:57:15.424Z,20.40
2023-04-13T06:59:43.836Z,20.40
2023-04-13T07:02:12.400Z,20.40
2023-04-13T07:04:40.982Z,20.40
2023-04-13T07:07:09.718Z,20.50
2023-04-13T07:09:38.224Z,20.50
2023-04-13T07:12:08.578Z,20.40
2023-04-13T07:14:42.031Z,20.50
2023-04-13T07:17:13.405Z,20.40
2023-04-13T07:19:46.543Z,20.40
2023-04-13T07:22:15.597Z,20.50
2023-04-13T07:24:44.823Z,20.50
2023-04-13T07:27:17.265Z,20.50
2023-04-13T07:29:47.445Z,20.50
2023-04-13T07:32:21.175Z,20.50
2023-04-13T07:34:49.654Z,20.50
2023-04-13T07:37:17.998Z,20.50
2023-04-13T07:39:47.903Z,20.50
2023-04-13T07:42:17.205Z,20.50
2023-04-13T07:44:52.552Z,20.50
2023-04-13T07:47:21.072Z,20.50
2023-04-13T07:49:49.823Z,20.50
2023-04-13T07:52:21.521Z,20.50
2023-04-13T07:54:51.302Z,20.60
2023-04-13T07:57:21.401Z,20.60
2023-04-13T07:59:57.168Z,20.50
2023-04-13T08:02:25.670Z,20.50
2023-04-13T08:04:56.565Z,20.60
2023-04-13T08:07:29.791Z,20.60
2023-04-13T08:09:58.016Z,20.60
2023-04-13T08:12:26.583Z,20.60
2023-04-13T08:14:56.424Z,20.60
2023-04-13T08:17:24.780Z,20.70
2023-04-13T08:19:53.116Z,20.70
2023-04-13T08:22:22.014Z,20.80
2023-04-13T08:24:50.370Z,20.80
2023-04-13T08:27:19.776Z,20.90
2023-04-13T08:29:48.383Z,20.90
2023-04-13T08:32:18.318Z,20.90
2023-04-13T08:34:46.728Z,20.90
2023-04-13T08:37:17.756Z,20.90
2023-04-13T08:39:48.359Z,20.90
2023-04-13T08:42:22.517Z,20.90
2023-04-13T08:44:53.399Z,20.90
2023-04-13T08:47:23.782Z,20.90
2023-04-13T08:49:53.416Z,20.90
2023-04-13T08:52:30.305Z,20.90
2023-04-13T08:55:00.941Z,20.90
2023-04-13T08:57:32.670Z,20.90
2023-04-13T09:00:01.548Z,20.90
2023-04-13T09:02:35.364Z,20.90
2023-04-13T09:05:15.928Z,20.90
2023-04-13T09:07:53.651Z,21.00
2023-04-13T09:10:23.466Z,21.00
2023-04-13T09:12:51.984Z,21.00
2023-04-13T09:15:20.897Z,21.10
2023-04-13T09:18:09.450Z,21.10
2023-04-13T09:20:42.377Z,21.10
2023-04-13T09:23:16.081Z,21.10
2023-04-13T09:25:46.786Z,21.10
2023-04-13T09:28:19.342Z,21.10
2023-04-13T09:30:48.383Z,21.10
2023-04-13T09:33:18.824Z,21.20
2023-04-13T09:35:47.305Z,21.20
2023-04-13T09:38:17.166Z,21.20
2023-04-13T09:40:54.342Z,21.30
2023-04-13T09:43:22.789Z,21.30
2023-04-13T09:45:51.311Z,21.30
2023-04-13T09:48:22.067Z,21.30
2023-04-13T09:51:00.475Z,21.40
2023-04-13T09:53:30.061Z,21.40
2023-04-13T09:55:59.933Z,21.40
2023-04-13T09:58:29.327Z,21.40
2023-04-13T10:00:59.393Z,21.40
2023-04-13T10:03:29.462Z,21.50
2023-04-13T10:06:01.236Z,21.50
2023-04-13T10:08:38.207Z,21.50
2023-04-13T10:11:12.679Z,21.60
2023-04-13T10:13:47.074Z,21.60
2023-04-13T10:16:41.987Z,21.60
2023-04-13T10:19:14.970Z,21.60
2023-04-13T10:21:47.498Z,21.60
2023-04-13T10:24:17.251Z,21.60
2023-04-13T10:26:45.773Z,21.50
2023-04-13T10:29:14.977Z,21.50
2023-04-13T10:31:47.122Z,21.50
2023-04-13T10:34:26.537Z,21.40
2023-04-13T10:36:58.385Z,21.40
2023-04-13T10:39:27.950Z,21.50
2023-04-13T10:42:03.908Z,21.50
2023-04-13T10:44:45.763Z,21.60
2023-04-13T10:47:15.247Z,21.60
2023-04-13T10:49:46.692Z,21.60
2023-04-13T10:52:15.673Z,21.70
2023-04-13T10:54:45.053Z,21.70
2023-04-13T10:57:14.958Z,21.60
2023-04-13T10:59:57.128Z,21.70
2023-04-13T11:02:30.738Z,21.70
2023-04-13T11:05:01.190Z,21.70
2023-04-13T11:07:29.965Z,21.60
2023-04-13T11:12:30.251Z,21.60
2023-04-13T11:14:58.506Z,21.60
2023-04-13T11:17:27.254Z,21.60
2023-04-13T11:19:58.335Z,21.70
2023-04-13T11:22:28.993Z,21.70
2023-04-13T11:25:08.483Z,21.70
2023-04-13T11:27:37.902Z,21.80
2023-04-13T11:30:09.428Z,21.80
2023-04-13T11:32:43.353Z,21.80
2023-04-13T11:35:14.602Z,21.80
2023-04-13T11:37:47.004Z,21.80
2023-04-13T11:40:21.422Z,21.80
2023-04-13T11:42:53.441Z,21.80
2023-04-13T11:45:23.831Z,21.80
2023-04-13T11:47:52.985Z,21.80
2023-04-13T11:50:22.543Z,21.80
2023-04-13T11:52:56.557Z,21.80
2023-04-13T11:55:26.200Z,21.80
2023-04-13T11:57:55.111Z,21.80
2023-04-13T12:00:26.056Z,21.80
2023-04-13T12:05:31.257Z,21.80
2023-04-13T12:08:04.388Z,21.80
2023-04-13T12:10:41.391Z,21.90
2023-04-13T12:16:04.939Z,21.90
2023-04-13T12:18:44.420Z,21.90
2023-04-13T12:21:16.807Z,21.90
2023-04-13T12:23:54.958Z,22.00
2023-04-13T12:27:10.288Z,22.00
2023-04-13T12:29:14.068Z,22.00
2023-04-13T12:31:44.452Z,22.00
2023-04-13T12:34:12.878Z,22.10
2023-04-13T12:36:41.188Z,22.10
2023-04-13T12:39:11.168Z,22.00
2023-04-13T12:41:39.482Z,22.00
2023-04-13T12:44:08.383Z,21.90
2023-04-13T12:46:37.018Z,21.80
2023-04-13T12:49:05.423Z,21.80
2023-04-13T12:51:33.725Z,21.80
2023-04-13T12:54:02.062Z,21.70
2023-04-13T12:56:33.540Z,21.70
2023-04-13T12:59:02.371Z,21.70
2023-04-13T13:01:31.358Z,21.60
2023-04-13T13:03:59.817Z,21.60
2023-04-13T13:06:28.168Z,21.60
2023-04-13T13:08:56.478Z,21.60
2023-04-13T13:11:24.812Z,21.60
2023-04-13T13:13:54.463Z,21.60
2023-04-13T13:16:22.982Z,21.70
2023-04-13T13:19:02.615Z,21.70
2023-04-13T13:21:31.516Z,21.70
2023-04-13T13:23:59.805Z,21.70
2023-04-13T13:28:59.185Z,21.70
2023-04-13T13:31:28.121Z,21.60
2023-04-13T13:33:56.425Z,21.60
2023-04-13T13:36:24.665Z,21.50
2023-04-13T13:38:52.884Z,21.50
2023-04-13T13:41:22.771Z,21.50
2023-04-13T13:43:50.956Z,21.50
2023-04-13T13:46:21.456Z,21.50
2023-04-13T13:48:49.848Z,21.40
2023-04-13T13:51:36.623Z,21.40
2023-04-13T13:54:07.138Z,21.50
2023-04-13T13:56:35.374Z,21.50
2023-04-13T13:59:04.663Z,21.50
2023-04-13T14:01:34.328Z,21.50
2023-04-13T14:04:02.718Z,21.50
2023-04-13T14:06:31.719Z,21.50
2023-04-13T14:09:00.235Z,21.50
2023-04-13T14:11:28.729Z,21.50
2023-04-13T14:13:56.963Z,21.60
2023-04-13T14:16:25.329Z,21.60
2023-04-13T14:18:55.084Z,21.60
2023-04-13T14:21:23.411Z,21.60
2023-04-13T14:23:51.822Z,21.60
2023-04-13T14:26:20.139Z,21.60
2023-04-13T14:28:48.975Z,21.60
2023-04-13T14:31:17.400Z,21.60
2023-04-13T14:33:45.766Z,21.60
2023-04-13T14:36:17.070Z,21.60
2023-04-13T14:38:45.316Z,21.60
2023-04-13T14:41:13.620Z,21.50
2023-04-13T14:43:41.911Z,21.50
2023-04-13T14:46:11.181Z,21.50
2023-04-13T14:48:39.516Z,21.50
2023-04-13T14:51:08.780Z,21.50
2023-04-13T14:53:38.637Z,21.50
2023-04-13T14:56:07.410Z,21.40
2023-04-13T14:58:35.763Z,21.40
2023-04-13T15:01:05.181Z,21.40
2023-04-13T15:03:34.281Z,21.30
2023-04-13T15:06:03.742Z,21.30
2023-04-13T15:08:34.002Z,21.30
2023-04-13T15:11:04.185Z,21.30
2023-04-13T15:13:32.525Z,21.30
2023-04-13T15:16:01.322Z,21.20
2023-04-13T15:18:29.798Z,21.20
2023-04-13T15:20:58.039Z,21.20
2023-04-13T15:23:26.421Z,21.20
2023-04-13T15:25:54.751Z,21.20
2023-04-13T15:28:24.656Z,21.20
2023-04-13T15:30:53.070Z,21.20
2023-04-13T15:33:21.535Z,21.20
2023-04-13T15:35:50.089Z,21.30
2023-04-13T15:38:18.298Z,21.30
2023-04-13T15:40:46.692Z,21.30
2023-04-13T15:43:15.159Z,21.30
2023-04-13T15:45:46.887Z,21.30
2023-04-13T15:48:15.675Z,21.30
2023-04-13T15:50:43.998Z,21.30
2023-04-13T15:53:12.344Z,21.30
2023-04-13T15:55:42.545Z,21.30
2023-04-13T15:58:12.805Z,21.20
2023-04-13T16:00:41.214Z,21.20
2023-04-13T16:03:11.134Z,21.20
2023-04-13T16:05:39.775Z,21.20
2023-04-13T16:08:08.312Z,21.20
2023-04-13T16:10:37.351Z,21.20
2023-04-13T16:13:06.422Z,21.20
2023-04-13T16:15:36.834Z,21.20
2023-04-13T16:18:05.577Z,21.20
2023-04-13T16:20:35.357Z,21.20
2023-04-13T16:23:05.149Z,21.20
2023-04-13T16:25:34.381Z,21.20
2023-04-13T16:28:02.825Z,21.20
2023-04-13T16:30:32.054Z,21.20
2023-04-13T16:33:00.484Z,21.20
2023-04-13T16:35:29.034Z,21.20
2023-04-13T16:37:58.737Z,21.20
2023-04-13T16:40:27.443Z,21.20
2023-04-13T16:42:55.790Z,21.20
2023-04-13T16:45:24.598Z,21.20
2023-04-13T16:47:54.787Z,21.20
2023-04-13T16:50:23.285Z,21.20
2023-04-13T16:52:51.802Z,21.10
2023-04-13T16:55:21.515Z,21.10
2023-04-13T16:57:49.930Z,21.10
2023-04-13T17:00:20.095Z,21.10
2023-04-13T17:02:49.173Z,21.10
2023-04-13T17:05:17.685Z,21.10
2023-04-13T17:07:48.174Z,21.20
2023-04-13T17:10:18.512Z,21.10
2023-04-13T17:12:48.262Z,21.10
2023-04-13T17:15:16.637Z,21.10
2023-04-13T17:17:44.985Z,21.10
2023-04-13T17:20:16.371Z,21.10
2023-04-13T17:22:45.403Z,21.10
2023-04-13T17:25:13.683Z,21.10
2023-04-13T17:27:42.109Z,21.00
2023-04-13T17:30:13.476Z,21.00
2023-04-13T17:32:42.289Z,21.00
2023-04-13T17:35:11.097Z,21.00
2023-04-13T17:37:39.331Z,21.00
2023-04-13T17:40:09.037Z,21.00
2023-04-13T17:42:37.313Z,21.00
2023-04-13T17:45:06.369Z,21.00
2023-04-13T17:47:36.197Z,20.90
2023-04-13T17:50:04.729Z,20.90
2023-04-13T17:52:33.213Z,20.90
2023-04-13T17:55:01.596Z,20.90
2023-04-13T17:57:30.312Z,20.90
2023-04-13T17:59:58.601Z,20.90
2023-04-13T18:02:26.965Z,20.90
2023-04-13T18:04:56.849Z,20.90
2023-04-13T18:07:26.328Z,20.90
2023-04-13T18:09:54.659Z,20.90
2023-04-13T18:12:22.893Z,20.90
2023-04-13T18:14:51.250Z,20.90
2023-04-13T18:17:21.408Z,20.80
2023-04-13T18:19:53.145Z,20.80
2023-04-13T18:22:22.943Z,20.80
2023-04-13T18:24:51.480Z,20.80
2023-04-13T18:27:19.806Z,20.80
2023-04-13T18:29:48.188Z,20.80
2023-04-13T18:32:17.505Z,20.80
2023-04-13T18:34:45.879Z,20.80
2023-04-13T18:37:14.194Z,20.80
2023-04-13T18:39:44.810Z,20.80
2023-04-13T18:42:13.337Z,20.70
2023-04-13T18:44:41.712Z,20.70
2023-04-13T18:47:10.023Z,20.70
2023-04-13T18:49:38.401Z,20.70
2023-04-13T18:52:07.008Z,20.70
2023-04-13T18:54:35.400Z,20.70
2023-04-13T18:57:05.429Z,20.70
2023-04-13T18:59:33.808Z,20.70
2023-04-13T19:02:02.336Z,20.70
2023-04-13T19:04:30.933Z,20.70
2023-04-13T19:06:59.312Z,20.70
2023-04-13T19:09:27.876Z,20.60
2023-04-13T19:12:01.257Z,20.60
2023-04-13T19:14:31.433Z,20.70
2023-04-13T19:17:00.490Z,20.60
2023-04-13T19:19:28.787Z,20.70
2023-04-13T19:21:57.633Z,20.70
2023-04-13T19:24:26.208Z,20.60
2023-04-13T19:26:55.795Z,20.60
2023-04-13T19:29:26.909Z,20.60
2023-04-13T19:31:57.001Z,20.60
2023-04-13T19:34:25.424Z,20.60
2023-04-13T19:36:53.803Z,20.60
2023-04-13T19:39:22.174Z,20.60
2023-04-13T19:41:50.790Z,20.60
2023-04-13T19:44:19.110Z,20.60
2023-04-13T19:46:47.929Z,20.60
2023-04-13T19:49:17.644Z,20.60
2023-04-13T19:51:46.116Z,20.60
2023-04-13T19:54:14.577Z,20.60
2023-04-13T19:56:43.979Z,20.60
2023-04-13T19:59:12.486Z,20.60
2023-04-13T20:01:41.187Z,20.60
2023-04-13T20:04:09.944Z,20.50
2023-04-13T20:06:40.146Z,20.50
2023-04-13T20:09:09.834Z,20.50
2023-04-13T20:11:38.424Z,20.60
2023-04-13T20:14:06.837Z,20.50
2023-04-13T20:16:36.602Z,20.60
2023-04-13T20:19:06.791Z,20.60
2023-04-13T20:21:35.172Z,20.50
2023-04-13T20:24:05.265Z,20.50
2023-04-13T20:26:33.650Z,20.50
2023-04-13T20:29:04.206Z,20.50
2023-04-13T20:31:34.636Z,20.50
2023-04-13T20:34:04.070Z,20.50
2023-04-13T20:36:32.516Z,20.50
2023-04-13T20:39:01.182Z,20.50
2023-04-13T20:41:32.592Z,20.50
2023-04-13T20:44:01.544Z,20.50
2023-04-13T20:46:34.690Z,20.50
2023-04-13T20:49:05.178Z,20.50
2023-04-13T20:51:34.197Z,20.40
2023-04-13T20:54:05.432Z,20.50
2023-04-13T20:56:36.592Z,20.40
2023-04-13T20:59:05.162Z,20.50
2023-04-13T21:01:33.430Z,20.40
2023-04-13T21:04:02.261Z,20.40
2023-04-13T21:06:31.805Z,20.40
2023-04-13T21:09:00.215Z,20.40
2023-04-13T21:11:28.612Z,20.40
2023-04-13T21:13:58.712Z,20.40
2023-04-13T21:16:27.651Z,20.40
2023-04-13T21:18:56.385Z,20.40
2023-04-13T21:21:25.309Z,20.40
2023-04-13T21:23:54.331Z,20.40
2023-04-13T21:26:22.901Z,20.40
2023-04-13T21:28:51.355Z,20.40
2023-04-13T21:31:21.248Z,20.40
2023-04-13T21:33:49.920Z,20.40
2023-04-13T21:38:49.728Z,20.40
2023-04-13T21:41:18.287Z,20.40
2023-04-13T21:43:46.965Z,20.30
2023-04-13T21:46:16.792Z,20.30
2023-04-13T21:48:46.501Z,20.40
2023-04-13T21:51:15.011Z,20.30
2023-04-13T21:53:43.279Z,20.30
2023-04-13T21:56:11.537Z,20.40
2023-04-13T21:58:42.036Z,20.30
2023-04-13T22:01:10.922Z,20.30
2023-04-13T22:03:40.374Z,20.30
2023-04-13T22:06:11.782Z,20.30
2023-04-13T22:08:40.523Z,20.30
2023-04-13T22:11:09.040Z,20.30
2023-04-13T22:13:37.330Z,20.30
2023-04-13T22:16:06.235Z,20.30
2023-04-13T22:18:34.640Z,20.30
2023-04-13T22:21:03.018Z,20.30
2023-04-13T22:23:32.781Z,20.30
2023-04-13T22:26:01.941Z,20.30
2023-04-13T22:28:31.015Z,20.30
2023-04-13T22:30:59.704Z,20.30
2023-04-13T22:33:31.772Z,20.30
2023-04-13T22:36:00.333Z,20.30
2023-04-13T22:38:28.595Z,20.20
2023-04-13T22:40:58.671Z,20.30
2023-04-13T22:43:27.138Z,20.30
2023-04-13T22:45:58.824Z,20.30
2023-04-13T22:48:28.952Z,20.30
2023-04-13T22:50:58.437Z,20.20
2023-04-13T22:53:27.090Z,20.20
2023-04-13T22:55:55.585Z,20.20
2023-04-13T22:58:25.651Z,20.20
2023-04-13T23:00:53.953Z,20.20
2023-04-13T23:03:22.363Z,20.20
2023-04-13T23:05:50.961Z,20.20
2023-04-13T23:08:19.193Z,20.20
2023-04-13T23:10:47.812Z,20.20
2023-04-13T23:13:16.351Z,20.20
2023-04-13T23:15:46.063Z,20.20
2023-04-13T23:18:14.475Z,20.20
2023-04-13T23:20:42.769Z,20.20
2023-04-13T23:23:11.203Z,20.20
2023-04-13T23:25:39.452Z,20.20
2023-04-13T23:28:07.772Z,20.20
2023-04-13T23:30:36.369Z,20.20
2023-04-13T23:33:06.159Z,20.20
2023-04-13T23:35:34.738Z,20.10
2023-04-13T23:38:03.094Z,20.10
2023-04-13T23:40:31.346Z,20.10
2023-04-13T23:42:59.636Z,20.20
2023-04-13T23:45:28.567Z,20.10
2023-04-13T23:47:57.053Z,20.10
2023-04-13T23:50:26.800Z,20.10
2023-04-13T23:52:55.242Z,20.10
2023-04-13T23:55:23.556Z,20.10
2023-04-13T23:57:51.920Z,20.10
